<?xml version="1.0" encoding="UTF-8" standalone="no" ?><gpx xmlns="http://www.topografix.com/GPX/1/1" xmlns:gpxx="http://www.garmin.com/xmlschemas/GpxExtensions/v3" xmlns:wptx1="http://www.garmin.com/xmlschemas/WaypointExtension/v1" xmlns:gpxtpx="http://www.garmin.com/xmlschemas/TrackPointExtension/v1" creator="Dakota 20" version="1.1" xmlns:xsi="http://www.w3.org/2001/XMLSchema-instance" xsi:schemaLocation="http://www.topografix.com/GPX/1/1 http://www.topografix.com/GPX/1/1/gpx.xsd http://www.garmin.com/xmlschemas/GpxExtensions/v3 http://www8.garmin.com/xmlschemas/GpxExtensionsv3.xsd http://www.garmin.com/xmlschemas/WaypointExtension/v1 http://www8.garmin.com/xmlschemas/WaypointExtensionv1.xsd http://www.garmin.com/xmlschemas/TrackPointExtension/v1 http://www.garmin.com/xmlschemas/TrackPointExtensionv1.xsd"><metadata><link href="http://www.garmin.com"><text>Garmin International</text></link><time>2014-04-02T17:46:12Z</time></metadata><trk><name>Current Track: 02 APR 2014 10:12</name><extensions><gpxx:TrackExtension><gpxx:DisplayColor>Cyan</gpxx:DisplayColor></gpxx:TrackExtension></extensions><trkseg><trkpt lat="51.7456468754" lon="-1.7144080717"><ele>112.13</ele><time>2014-04-02T09:12:29Z</time></trkpt><trkpt lat="51.7456826661" lon="-1.7143431958"><ele>112.61</ele><time>2014-04-02T09:12:55Z</time></trkpt><trkpt lat="51.7456692550" lon="-1.7143526673"><ele>112.13</ele><time>2014-04-02T09:13:11Z</time></trkpt><trkpt lat="51.7455954105" lon="-1.7143059801"><ele>111.17</ele><time>2014-04-02T09:13:25Z</time></trkpt><trkpt lat="51.7455301154" lon="-1.7142242566"><ele>109.73</ele><time>2014-04-02T09:13:37Z</time></trkpt><trkpt lat="51.7454711907" lon="-1.7141430359"><ele>108.29</ele><time>2014-04-02T09:13:54Z</time></trkpt><trkpt lat="51.7453810014" lon="-1.7141891364"><ele>107.81</ele><time>2014-04-02T09:14:11Z</time></trkpt><trkpt lat="51.7453765590" lon="-1.7141930759"><ele>107.81</ele><time>2014-04-02T09:14:32Z</time></trkpt><trkpt lat="51.7453855276" lon="-1.7141897231"><ele>107.81</ele><time>2014-04-02T09:14:51Z</time></trkpt><trkpt lat="51.7453861143" lon="-1.7141931597"><ele>107.81</ele><time>2014-04-02T09:15:18Z</time></trkpt><trkpt lat="51.7454202287" lon="-1.7143015377"><ele>107.32</ele><time>2014-04-02T09:15:37Z</time></trkpt><trkpt lat="51.7453836836" lon="-1.7145113368"><ele>107.81</ele><time>2014-04-02T09:15:53Z</time></trkpt><trkpt lat="51.7452806700" lon="-1.7147124186"><ele>107.81</ele><time>2014-04-02T09:16:10Z</time></trkpt><trkpt lat="51.7452280317" lon="-1.7148025241"><ele>108.29</ele><time>2014-04-02T09:16:21Z</time></trkpt><trkpt lat="51.7451540194" lon="-1.7149005085"><ele>108.77</ele><time>2014-04-02T09:16:29Z</time></trkpt><trkpt lat="51.7450633273" lon="-1.7150550708"><ele>109.73</ele><time>2014-04-02T09:16:42Z</time></trkpt><trkpt lat="51.7449157219" lon="-1.7152160872"><ele>111.65</ele><time>2014-04-02T09:16:58Z</time></trkpt><trkpt lat="51.7447681166" lon="-1.7153333500"><ele>112.61</ele><time>2014-04-02T09:17:14Z</time></trkpt><trkpt lat="51.7446075194" lon="-1.7154508643"><ele>113.09</ele><time>2014-04-02T09:17:31Z</time></trkpt><trkpt lat="51.7445097864" lon="-1.7154672928"><ele>113.57</ele><time>2014-04-02T09:17:46Z</time></trkpt><trkpt lat="51.7443748377" lon="-1.7154889181"><ele>113.57</ele><time>2014-04-02T09:18:01Z</time></trkpt><trkpt lat="51.7442141566" lon="-1.7155466694"><ele>114.53</ele><time>2014-04-02T09:18:17Z</time></trkpt><trkpt lat="51.7440279108" lon="-1.7155805323"><ele>114.53</ele><time>2014-04-02T09:18:34Z</time></trkpt><trkpt lat="51.7437896132" lon="-1.7156501859"><ele>114.53</ele><time>2014-04-02T09:18:55Z</time></trkpt><trkpt lat="51.7436342966" lon="-1.7157143913"><ele>115.98</ele><time>2014-04-02T09:19:10Z</time></trkpt><trkpt lat="51.7434882838" lon="-1.7157539539"><ele>115.50</ele><time>2014-04-02T09:19:25Z</time></trkpt><trkpt lat="51.7432804126" lon="-1.7158034910"><ele>116.94</ele><time>2014-04-02T09:19:42Z</time></trkpt><trkpt lat="51.7431240901" lon="-1.7158360966"><ele>117.90</ele><time>2014-04-02T09:19:58Z</time></trkpt><trkpt lat="51.7429487407" lon="-1.7158489209"><ele>117.90</ele><time>2014-04-02T09:20:15Z</time></trkpt><trkpt lat="51.7427964415" lon="-1.7158547044"><ele>118.38</ele><time>2014-04-02T09:20:31Z</time></trkpt><trkpt lat="51.7426653486" lon="-1.7158563808"><ele>117.90</ele><time>2014-04-02T09:20:44Z</time></trkpt><trkpt lat="51.7425318249" lon="-1.7158428859"><ele>117.42</ele><time>2014-04-02T09:21:01Z</time></trkpt><trkpt lat="51.7423476744" lon="-1.7158738989"><ele>117.90</ele><time>2014-04-02T09:21:18Z</time></trkpt><trkpt lat="51.7422138155" lon="-1.7158449814"><ele>117.42</ele><time>2014-04-02T09:21:33Z</time></trkpt><trkpt lat="51.7420986481" lon="-1.7158283852"><ele>118.86</ele><time>2014-04-02T09:21:45Z</time></trkpt><trkpt lat="51.7420248035" lon="-1.7160240188"><ele>118.86</ele><time>2014-04-02T09:22:00Z</time></trkpt><trkpt lat="51.7419874202" lon="-1.7161922436"><ele>118.86</ele><time>2014-04-02T09:22:12Z</time></trkpt><trkpt lat="51.7419450078" lon="-1.7164025456"><ele>119.34</ele><time>2014-04-02T09:22:25Z</time></trkpt><trkpt lat="51.7418970633" lon="-1.7165955808"><ele>120.30</ele><time>2014-04-02T09:22:38Z</time></trkpt><trkpt lat="51.7418191954" lon="-1.7168310285"><ele>120.78</ele><time>2014-04-02T09:22:55Z</time></trkpt><trkpt lat="51.7417395674" lon="-1.7170459405"><ele>120.78</ele><time>2014-04-02T09:23:10Z</time></trkpt><trkpt lat="51.7417104822" lon="-1.7171680648"><ele>121.26</ele><time>2014-04-02T09:23:21Z</time></trkpt><trkpt lat="51.7416897789" lon="-1.7172213737"><ele>122.71</ele><time>2014-04-02T09:23:24Z</time></trkpt><trkpt lat="51.7416192871" lon="-1.7174448352"><ele>122.22</ele><time>2014-04-02T09:23:40Z</time></trkpt><trkpt lat="51.7415899504" lon="-1.7175268941"><ele>122.71</ele><time>2014-04-02T09:23:54Z</time></trkpt><trkpt lat="51.7415130883" lon="-1.7177872360"><ele>122.22</ele><time>2014-04-02T09:24:10Z</time></trkpt><trkpt lat="51.7414382380" lon="-1.7180131283"><ele>122.22</ele><time>2014-04-02T09:24:25Z</time></trkpt><trkpt lat="51.7413563468" lon="-1.7182510905"><ele>121.26</ele><time>2014-04-02T09:24:41Z</time></trkpt><trkpt lat="51.7412646487" lon="-1.7185358237"><ele>121.26</ele><time>2014-04-02T09:25:00Z</time></trkpt><trkpt lat="51.7412005272" lon="-1.7187364865"><ele>121.26</ele><time>2014-04-02T09:25:15Z</time></trkpt><trkpt lat="51.7411357351" lon="-1.7189566791"><ele>120.78</ele><time>2014-04-02T09:25:29Z</time></trkpt><trkpt lat="51.7410718650" lon="-1.7191942222"><ele>121.26</ele><time>2014-04-02T09:25:47Z</time></trkpt><trkpt lat="51.7409929074" lon="-1.7194192763"><ele>120.30</ele><time>2014-04-02T09:26:02Z</time></trkpt><trkpt lat="51.7409777362" lon="-1.7194648739"><ele>121.26</ele><time>2014-04-02T09:26:06Z</time></trkpt><trkpt lat="51.7409359105" lon="-1.7196059413"><ele>121.26</ele><time>2014-04-02T09:26:14Z</time></trkpt><trkpt lat="51.7408654187" lon="-1.7198450770"><ele>120.30</ele><time>2014-04-02T09:26:29Z</time></trkpt><trkpt lat="51.7407977767" lon="-1.7201083526"><ele>119.82</ele><time>2014-04-02T09:26:46Z</time></trkpt><trkpt lat="51.7407292128" lon="-1.7203438841"><ele>119.82</ele><time>2014-04-02T09:27:02Z</time></trkpt><trkpt lat="51.7406739760" lon="-1.7205336504"><ele>119.82</ele><time>2014-04-02T09:27:14Z</time></trkpt><trkpt lat="51.7406542785" lon="-1.7205871269"><ele>119.34</ele><time>2014-04-02T09:27:17Z</time></trkpt><trkpt lat="51.7405791767" lon="-1.7208561860"><ele>119.34</ele><time>2014-04-02T09:27:32Z</time></trkpt><trkpt lat="51.7404687870" lon="-1.7211307772"><ele>119.34</ele><time>2014-04-02T09:27:49Z</time></trkpt><trkpt lat="51.7403759155" lon="-1.7213508021"><ele>119.34</ele><time>2014-04-02T09:28:05Z</time></trkpt><trkpt lat="51.7403108720" lon="-1.7214999162"><ele>119.82</ele><time>2014-04-02T09:28:17Z</time></trkpt><trkpt lat="51.7402114626" lon="-1.7217200249"><ele>119.34</ele><time>2014-04-02T09:28:33Z</time></trkpt><trkpt lat="51.7401200999" lon="-1.7219088692"><ele>119.82</ele><time>2014-04-02T09:28:49Z</time></trkpt><trkpt lat="51.7400147393" lon="-1.7221281398"><ele>119.34</ele><time>2014-04-02T09:29:05Z</time></trkpt><trkpt lat="51.7399399728" lon="-1.7222977057"><ele>119.82</ele><time>2014-04-02T09:29:20Z</time></trkpt><trkpt lat="51.7399237957" lon="-1.7223531101"><ele>120.30</ele><time>2014-04-02T09:29:25Z</time></trkpt><trkpt lat="51.7399090435" lon="-1.7224120349"><ele>120.30</ele><time>2014-04-02T09:29:28Z</time></trkpt><trkpt lat="51.7398260627" lon="-1.7226413637"><ele>120.30</ele><time>2014-04-02T09:29:43Z</time></trkpt><trkpt lat="51.7397873383" lon="-1.7228411045"><ele>120.30</ele><time>2014-04-02T09:29:56Z</time></trkpt><trkpt lat="51.7397437524" lon="-1.7230763007"><ele>121.26</ele><time>2014-04-02T09:30:10Z</time></trkpt><trkpt lat="51.7397286650" lon="-1.7231662385"><ele>121.26</ele><time>2014-04-02T09:30:16Z</time></trkpt><trkpt lat="51.7396999989" lon="-1.7233303562"><ele>121.74</ele><time>2014-04-02T09:30:27Z</time></trkpt><trkpt lat="51.7396663036" lon="-1.7235772032"><ele>121.74</ele><time>2014-04-02T09:30:42Z</time></trkpt><trkpt lat="51.7396455165" lon="-1.7237667181"><ele>122.22</ele><time>2014-04-02T09:30:55Z</time></trkpt><trkpt lat="51.7396123242" lon="-1.7239837255"><ele>122.22</ele><time>2014-04-02T09:31:08Z</time></trkpt><trkpt lat="51.7396015115" lon="-1.7240937799"><ele>122.22</ele><time>2014-04-02T09:31:15Z</time></trkpt><trkpt lat="51.7395697441" lon="-1.7243801896"><ele>122.71</ele><time>2014-04-02T09:31:31Z</time></trkpt><trkpt lat="51.7395655531" lon="-1.7245724704"><ele>123.19</ele><time>2014-04-02T09:31:44Z</time></trkpt><trkpt lat="51.7395428382" lon="-1.7247816827"><ele>123.19</ele><time>2014-04-02T09:31:58Z</time></trkpt><trkpt lat="51.7394921277" lon="-1.7250161245"><ele>124.15</ele><time>2014-04-02T09:32:13Z</time></trkpt><trkpt lat="51.7395058740" lon="-1.7249986902"><ele>124.15</ele><time>2014-04-02T09:32:27Z</time></trkpt><trkpt lat="51.7395105679" lon="-1.7249897216"><ele>124.15</ele><time>2014-04-02T09:32:53Z</time></trkpt><trkpt lat="51.7394851707" lon="-1.7251398414"><ele>124.15</ele><time>2014-04-02T09:33:11Z</time></trkpt><trkpt lat="51.7394479550" lon="-1.7253701761"><ele>124.63</ele><time>2014-04-02T09:33:26Z</time></trkpt><trkpt lat="51.7394046206" lon="-1.7255439330"><ele>124.63</ele><time>2014-04-02T09:33:38Z</time></trkpt><trkpt lat="51.7393596936" lon="-1.7256661411"><ele>125.11</ele><time>2014-04-02T09:33:50Z</time></trkpt><trkpt lat="51.7393618729" lon="-1.7257134151"><ele>125.11</ele><time>2014-04-02T09:34:00Z</time></trkpt><trkpt lat="51.7393307760" lon="-1.7258293368"><ele>124.63</ele><time>2014-04-02T09:34:07Z</time></trkpt><trkpt lat="51.7393204663" lon="-1.7258810531"><ele>125.11</ele><time>2014-04-02T09:34:10Z</time></trkpt><trkpt lat="51.7393104080" lon="-1.7259072885"><ele>124.63</ele><time>2014-04-02T09:34:12Z</time></trkpt><trkpt lat="51.7392953206" lon="-1.7259579990"><ele>125.59</ele><time>2014-04-02T09:34:15Z</time></trkpt><trkpt lat="51.7392370664" lon="-1.7261660378"><ele>125.59</ele><time>2014-04-02T09:34:28Z</time></trkpt><trkpt lat="51.7391826678" lon="-1.7263611685"><ele>126.07</ele><time>2014-04-02T09:34:42Z</time></trkpt><trkpt lat="51.7391434405" lon="-1.7265297286"><ele>126.55</ele><time>2014-04-02T09:34:55Z</time></trkpt><trkpt lat="51.7391266767" lon="-1.7265886534"><ele>125.59</ele><time>2014-04-02T09:35:11Z</time></trkpt><trkpt lat="51.7391288560" lon="-1.7266368493"><ele>125.59</ele><time>2014-04-02T09:35:24Z</time></trkpt><trkpt lat="51.7390980106" lon="-1.7268100195"><ele>126.07</ele><time>2014-04-02T09:35:36Z</time></trkpt><trkpt lat="51.7390825879" lon="-1.7268527672"><ele>126.07</ele><time>2014-04-02T09:35:48Z</time></trkpt><trkpt lat="51.7390421033" lon="-1.7270477302"><ele>126.07</ele><time>2014-04-02T09:36:01Z</time></trkpt><trkpt lat="51.7389947455" lon="-1.7272380833"><ele>126.07</ele><time>2014-04-02T09:36:14Z</time></trkpt><trkpt lat="51.7389721982" lon="-1.7273520771"><ele>126.07</ele><time>2014-04-02T09:36:28Z</time></trkpt><trkpt lat="51.7389566917" lon="-1.7274836730"><ele>126.07</ele><time>2014-04-02T09:36:38Z</time></trkpt><trkpt lat="51.7389552668" lon="-1.7275310308"><ele>126.07</ele><time>2014-04-02T09:36:40Z</time></trkpt><trkpt lat="51.7388781533" lon="-1.7278207932"><ele>126.07</ele><time>2014-04-02T09:36:55Z</time></trkpt><trkpt lat="51.7388364952" lon="-1.7280269042"><ele>125.59</ele><time>2014-04-02T09:37:08Z</time></trkpt><trkpt lat="51.7387794983" lon="-1.7282341886"><ele>126.07</ele><time>2014-04-02T09:37:24Z</time></trkpt><trkpt lat="51.7387116048" lon="-1.7284809519"><ele>126.07</ele><time>2014-04-02T09:37:41Z</time></trkpt><trkpt lat="51.7386675999" lon="-1.7286582291"><ele>126.07</ele><time>2014-04-02T09:37:52Z</time></trkpt><trkpt lat="51.7386287916" lon="-1.7287811078"><ele>126.07</ele><time>2014-04-02T09:37:59Z</time></trkpt><trkpt lat="51.7385878880" lon="-1.7289914098"><ele>126.07</ele><time>2014-04-02T09:38:15Z</time></trkpt><trkpt lat="51.7385267839" lon="-1.7291817628"><ele>126.07</ele><time>2014-04-02T09:38:31Z</time></trkpt><trkpt lat="51.7385207489" lon="-1.7292062379"><ele>126.07</ele><time>2014-04-02T09:38:33Z</time></trkpt><trkpt lat="51.7384580523" lon="-1.7292765621"><ele>126.07</ele><time>2014-04-02T09:38:48Z</time></trkpt><trkpt lat="51.7384681106" lon="-1.7292556912"><ele>125.59</ele><time>2014-04-02T09:39:14Z</time></trkpt><trkpt lat="51.7384757381" lon="-1.7292495724"><ele>125.59</ele><time>2014-04-02T09:39:39Z</time></trkpt><trkpt lat="51.7384779174" lon="-1.7292508297"><ele>126.55</ele><time>2014-04-02T09:40:05Z</time></trkpt><trkpt lat="51.7384514306" lon="-1.7292061541"><ele>126.55</ele><time>2014-04-02T09:40:19Z</time></trkpt><trkpt lat="51.7384676915" lon="-1.7292162962"><ele>125.59</ele><time>2014-04-02T09:40:32Z</time></trkpt><trkpt lat="51.7384730559" lon="-1.7292963434"><ele>126.07</ele><time>2014-04-02T09:40:37Z</time></trkpt><trkpt lat="51.7384226806" lon="-1.7295492254"><ele>126.07</ele><time>2014-04-02T09:40:53Z</time></trkpt><trkpt lat="51.7383676115" lon="-1.7297215573"><ele>125.59</ele><time>2014-04-02T09:41:06Z</time></trkpt><trkpt lat="51.7383393645" lon="-1.7298207991"><ele>125.59</ele><time>2014-04-02T09:41:12Z</time></trkpt><trkpt lat="51.7382951919" lon="-1.7300596833"><ele>125.59</ele><time>2014-04-02T09:41:26Z</time></trkpt><trkpt lat="51.7382460739" lon="-1.7302829772"><ele>126.07</ele><time>2014-04-02T09:41:41Z</time></trkpt><trkpt lat="51.7382040806" lon="-1.7305049300"><ele>126.07</ele><time>2014-04-02T09:41:55Z</time></trkpt><trkpt lat="51.7381724808" lon="-1.7307117954"><ele>126.07</ele><time>2014-04-02T09:42:09Z</time></trkpt><trkpt lat="51.7381453235" lon="-1.7309160624"><ele>126.55</ele><time>2014-04-02T09:42:22Z</time></trkpt><trkpt lat="51.7381447367" lon="-1.7309288029"><ele>126.07</ele><time>2014-04-02T09:42:23Z</time></trkpt><trkpt lat="51.7381398752" lon="-1.7309733108"><ele>126.55</ele><time>2014-04-02T09:42:26Z</time></trkpt><trkpt lat="51.7380887456" lon="-1.7312423699"><ele>126.07</ele><time>2014-04-02T09:42:44Z</time></trkpt><trkpt lat="51.7380582355" lon="-1.7314529233"><ele>125.59</ele><time>2014-04-02T09:43:00Z</time></trkpt><trkpt lat="51.7380024958" lon="-1.7317073140"><ele>125.59</ele><time>2014-04-02T09:43:17Z</time></trkpt><trkpt lat="51.7379691359" lon="-1.7318989243"><ele>125.59</ele><time>2014-04-02T09:43:31Z</time></trkpt><trkpt lat="51.7379094567" lon="-1.7321151774"><ele>124.63</ele><time>2014-04-02T09:43:48Z</time></trkpt><trkpt lat="51.7378630210" lon="-1.7323056143"><ele>124.63</ele><time>2014-04-02T09:44:01Z</time></trkpt><trkpt lat="51.7378098797" lon="-1.7324943747"><ele>123.19</ele><time>2014-04-02T09:44:15Z</time></trkpt><trkpt lat="51.7377685569" lon="-1.7326424830"><ele>122.22</ele><time>2014-04-02T09:44:26Z</time></trkpt><trkpt lat="51.7377234623" lon="-1.7328314949"><ele>121.74</ele><time>2014-04-02T09:44:40Z</time></trkpt><trkpt lat="51.7376701534" lon="-1.7330408748"><ele>119.82</ele><time>2014-04-02T09:44:56Z</time></trkpt><trkpt lat="51.7376009189" lon="-1.7332803458"><ele>118.86</ele><time>2014-04-02T09:45:13Z</time></trkpt><trkpt lat="51.7375945486" lon="-1.7333088443"><ele>118.38</ele><time>2014-04-02T09:45:15Z</time></trkpt><trkpt lat="51.7375387251" lon="-1.7335246783"><ele>116.46</ele><time>2014-04-02T09:45:31Z</time></trkpt><trkpt lat="51.7374940496" lon="-1.7337737046"><ele>115.98</ele><time>2014-04-02T09:45:50Z</time></trkpt><trkpt lat="51.7374357954" lon="-1.7339705117"><ele>115.50</ele><time>2014-04-02T09:46:10Z</time></trkpt><trkpt lat="51.7374155950" lon="-1.7340500560"><ele>115.01</ele><time>2014-04-02T09:46:28Z</time></trkpt><trkpt lat="51.7374008428" lon="-1.7341039516"><ele>115.01</ele><time>2014-04-02T09:46:32Z</time></trkpt><trkpt lat="51.7373641301" lon="-1.7342292611"><ele>115.01</ele><time>2014-04-02T09:46:41Z</time></trkpt><trkpt lat="51.7373197060" lon="-1.7344910279"><ele>113.09</ele><time>2014-04-02T09:46:59Z</time></trkpt><trkpt lat="51.7372660618" lon="-1.7347010784"><ele>113.57</ele><time>2014-04-02T09:47:14Z</time></trkpt><trkpt lat="51.7372048739" lon="-1.7349353526"><ele>113.09</ele><time>2014-04-02T09:47:31Z</time></trkpt><trkpt lat="51.7371465359" lon="-1.7351346742"><ele>111.65</ele><time>2014-04-02T09:47:45Z</time></trkpt><trkpt lat="51.7370772175" lon="-1.7353180703"><ele>111.65</ele><time>2014-04-02T09:47:59Z</time></trkpt><trkpt lat="51.7370027024" lon="-1.7355068307"><ele>110.21</ele><time>2014-04-02T09:48:15Z</time></trkpt><trkpt lat="51.7369063944" lon="-1.7356808390"><ele>109.73</ele><time>2014-04-02T09:48:31Z</time></trkpt><trkpt lat="51.7368377466" lon="-1.7358105909"><ele>108.29</ele><time>2014-04-02T09:48:44Z</time></trkpt><trkpt lat="51.7367366608" lon="-1.7360120080"><ele>107.32</ele><time>2014-04-02T09:49:01Z</time></trkpt><trkpt lat="51.7367322184" lon="-1.7361552548"><ele>106.36</ele><time>2014-04-02T09:49:15Z</time></trkpt><trkpt lat="51.7367385887" lon="-1.7361844238"><ele>106.36</ele><time>2014-04-02T09:49:17Z</time></trkpt><trkpt lat="51.7367993575" lon="-1.7363712564"><ele>106.36</ele><time>2014-04-02T09:49:32Z</time></trkpt><trkpt lat="51.7368146125" lon="-1.7365080491"><ele>106.36</ele><time>2014-04-02T09:49:41Z</time></trkpt><trkpt lat="51.7368286103" lon="-1.7367446702"><ele>106.84</ele><time>2014-04-02T09:49:56Z</time></trkpt><trkpt lat="51.7368198093" lon="-1.7370053474"><ele>106.36</ele><time>2014-04-02T09:50:13Z</time></trkpt><trkpt lat="51.7368079070" lon="-1.7372132186"><ele>106.84</ele><time>2014-04-02T09:50:28Z</time></trkpt><trkpt lat="51.7368077394" lon="-1.7373275477"><ele>106.36</ele><time>2014-04-02T09:50:43Z</time></trkpt><trkpt lat="51.7368447036" lon="-1.7374167312"><ele>106.36</ele><time>2014-04-02T09:50:56Z</time></trkpt><trkpt lat="51.7368834279" lon="-1.7374779191"><ele>107.32</ele><time>2014-04-02T09:51:11Z</time></trkpt><trkpt lat="51.7368745431" lon="-1.7375031486"><ele>106.84</ele><time>2014-04-02T09:51:28Z</time></trkpt><trkpt lat="51.7368744593" lon="-1.7375041544"><ele>106.84</ele><time>2014-04-02T09:51:53Z</time></trkpt><trkpt lat="51.7368767224" lon="-1.7375034839"><ele>106.84</ele><time>2014-04-02T09:52:17Z</time></trkpt><trkpt lat="51.7368773092" lon="-1.7375092674"><ele>106.84</ele><time>2014-04-02T09:52:42Z</time></trkpt><trkpt lat="51.7368098348" lon="-1.7376379296"><ele>106.36</ele><time>2014-04-02T09:52:54Z</time></trkpt><trkpt lat="51.7367970105" lon="-1.7376693618"><ele>106.84</ele><time>2014-04-02T09:52:56Z</time></trkpt><trkpt lat="51.7367260996" lon="-1.7378130276"><ele>106.84</ele><time>2014-04-02T09:53:06Z</time></trkpt><trkpt lat="51.7366372515" lon="-1.7380345613"><ele>109.73</ele><time>2014-04-02T09:53:23Z</time></trkpt><trkpt lat="51.7365567014" lon="-1.7382249981"><ele>111.17</ele><time>2014-04-02T09:53:39Z</time></trkpt><trkpt lat="51.7364946753" lon="-1.7383462843"><ele>112.61</ele><time>2014-04-02T09:53:57Z</time></trkpt><trkpt lat="51.7363574635" lon="-1.7386144213"><ele>114.53</ele><time>2014-04-02T09:54:17Z</time></trkpt><trkpt lat="51.7362764943" lon="-1.7388122343"><ele>115.98</ele><time>2014-04-02T09:54:35Z</time></trkpt><trkpt lat="51.7361915857" lon="-1.7389965523"><ele>116.46</ele><time>2014-04-02T09:54:51Z</time></trkpt><trkpt lat="51.7360971216" lon="-1.7391932756"><ele>117.90</ele><time>2014-04-02T09:55:08Z</time></trkpt><trkpt lat="51.7360108718" lon="-1.7393549625"><ele>118.86</ele><time>2014-04-02T09:55:23Z</time></trkpt><trkpt lat="51.7359242868" lon="-1.7395341676"><ele>119.34</ele><time>2014-04-02T09:55:38Z</time></trkpt><trkpt lat="51.7358387914" lon="-1.7397073377"><ele>119.34</ele><time>2014-04-02T09:55:54Z</time></trkpt><trkpt lat="51.7357635219" lon="-1.7398113571"><ele>119.34</ele><time>2014-04-02T09:56:10Z</time></trkpt><trkpt lat="51.7356800381" lon="-1.7397724651"><ele>119.82</ele><time>2014-04-02T09:56:26Z</time></trkpt><trkpt lat="51.7356642801" lon="-1.7397558689"><ele>119.34</ele><time>2014-04-02T09:56:28Z</time></trkpt><trkpt lat="51.7356223706" lon="-1.7396793421"><ele>119.34</ele><time>2014-04-02T09:56:43Z</time></trkpt><trkpt lat="51.7356175091" lon="-1.7396649253"><ele>118.86</ele><time>2014-04-02T09:56:57Z</time></trkpt><trkpt lat="51.7356130667" lon="-1.7396591417"><ele>119.34</ele><time>2014-04-02T09:57:18Z</time></trkpt><trkpt lat="51.7356165871" lon="-1.7396676913"><ele>119.82</ele><time>2014-04-02T09:57:38Z</time></trkpt><trkpt lat="51.7356103845" lon="-1.7396506760"><ele>115.01</ele><time>2014-04-02T09:57:50Z</time></trkpt><trkpt lat="51.7356103845" lon="-1.7396506760"><ele>121.74</ele><time>2014-04-02T09:57:51Z</time></trkpt><trkpt lat="51.7356104683" lon="-1.7396505922"><ele>115.50</ele><time>2014-04-02T09:57:53Z</time></trkpt><trkpt lat="51.7356104683" lon="-1.7396505084"><ele>119.82</ele><time>2014-04-02T09:57:54Z</time></trkpt><trkpt lat="51.7356109712" lon="-1.7396543641"><ele>119.82</ele><time>2014-04-02T09:58:13Z</time></trkpt><trkpt lat="51.7356068641" lon="-1.7396641709"><ele>119.82</ele><time>2014-04-02T09:58:36Z</time></trkpt><trkpt lat="51.7356069479" lon="-1.7396707088"><ele>119.82</ele><time>2014-04-02T09:58:58Z</time></trkpt><trkpt lat="51.7356109712" lon="-1.7396625783"><ele>119.82</ele><time>2014-04-02T09:59:21Z</time></trkpt><trkpt lat="51.7356114741" lon="-1.7396623269"><ele>120.30</ele><time>2014-04-02T09:59:46Z</time></trkpt><trkpt lat="51.7356145754" lon="-1.7396655958"><ele>119.82</ele><time>2014-04-02T10:00:12Z</time></trkpt><trkpt lat="51.7356131505" lon="-1.7396681104"><ele>119.82</ele><time>2014-04-02T10:00:34Z</time></trkpt><trkpt lat="51.7356057744" lon="-1.7396631651"><ele>120.30</ele><time>2014-04-02T10:00:58Z</time></trkpt><trkpt lat="51.7356003262" lon="-1.7396659311"><ele>119.82</ele><time>2014-04-02T10:01:24Z</time></trkpt><trkpt lat="51.7355977278" lon="-1.7396667693"><ele>119.82</ele><time>2014-04-02T10:01:44Z</time></trkpt><trkpt lat="51.7355998233" lon="-1.7396655120"><ele>119.82</ele><time>2014-04-02T10:02:03Z</time></trkpt><trkpt lat="51.7356017511" lon="-1.7396732233"><ele>119.34</ele><time>2014-04-02T10:02:28Z</time></trkpt><trkpt lat="51.7356047686" lon="-1.7396706250"><ele>119.34</ele><time>2014-04-02T10:02:50Z</time></trkpt><trkpt lat="51.7355979793" lon="-1.7396675237"><ele>118.86</ele><time>2014-04-02T10:03:12Z</time></trkpt><trkpt lat="51.7355973925" lon="-1.7396715470"><ele>119.34</ele><time>2014-04-02T10:03:34Z</time></trkpt><trkpt lat="51.7356077861" lon="-1.7396621592"><ele>119.34</ele><time>2014-04-02T10:03:57Z</time></trkpt><trkpt lat="51.7356085405" lon="-1.7396568786"><ele>118.38</ele><time>2014-04-02T10:04:19Z</time></trkpt><trkpt lat="51.7356063612" lon="-1.7396469880"><ele>117.90</ele><time>2014-04-02T10:04:46Z</time></trkpt><trkpt lat="51.7355936207" lon="-1.7396366782"><ele>118.38</ele><time>2014-04-02T10:05:08Z</time></trkpt><trkpt lat="51.7355830595" lon="-1.7396433838"><ele>117.90</ele><time>2014-04-02T10:05:28Z</time></trkpt><trkpt lat="51.7355865799" lon="-1.7396439705"><ele>117.42</ele><time>2014-04-02T10:06:01Z</time></trkpt><trkpt lat="51.7355842330" lon="-1.7396474909"><ele>118.38</ele><time>2014-04-02T10:06:23Z</time></trkpt><trkpt lat="51.7355854902" lon="-1.7396413721"><ele>117.90</ele><time>2014-04-02T10:06:51Z</time></trkpt><trkpt lat="51.7355901003" lon="-1.7396458145"><ele>117.90</ele><time>2014-04-02T10:07:16Z</time></trkpt><trkpt lat="51.7355550639" lon="-1.7395846266"><ele>117.90</ele><time>2014-04-02T10:07:36Z</time></trkpt><trkpt lat="51.7354587559" lon="-1.7394056730"><ele>117.90</ele><time>2014-04-02T10:07:51Z</time></trkpt><trkpt lat="51.7353608552" lon="-1.7391857319"><ele>117.42</ele><time>2014-04-02T10:08:08Z</time></trkpt><trkpt lat="51.7353136651" lon="-1.7391127255"><ele>116.94</ele><time>2014-04-02T10:08:15Z</time></trkpt><trkpt lat="51.7352491245" lon="-1.7389843147"><ele>116.94</ele><time>2014-04-02T10:08:30Z</time></trkpt><trkpt lat="51.7352113221" lon="-1.7389378790"><ele>116.94</ele><time>2014-04-02T10:08:51Z</time></trkpt><trkpt lat="51.7352036107" lon="-1.7389202770"><ele>116.94</ele><time>2014-04-02T10:09:08Z</time></trkpt><trkpt lat="51.7351179477" lon="-1.7387537286"><ele>116.46</ele><time>2014-04-02T10:09:24Z</time></trkpt><trkpt lat="51.7350746132" lon="-1.7386494577"><ele>116.46</ele><time>2014-04-02T10:09:29Z</time></trkpt><trkpt lat="51.7349275947" lon="-1.7383564264"><ele>116.46</ele><time>2014-04-02T10:09:46Z</time></trkpt><trkpt lat="51.7347896285" lon="-1.7381171230"><ele>116.46</ele><time>2014-04-02T10:10:04Z</time></trkpt><trkpt lat="51.7346918955" lon="-1.7379253451"><ele>115.98</ele><time>2014-04-02T10:10:18Z</time></trkpt><trkpt lat="51.7345654126" lon="-1.7376824375"><ele>115.98</ele><time>2014-04-02T10:10:37Z</time></trkpt><trkpt lat="51.7344734631" lon="-1.7374646757"><ele>116.46</ele><time>2014-04-02T10:10:55Z</time></trkpt><trkpt lat="51.7343666777" lon="-1.7372884043"><ele>115.98</ele><time>2014-04-02T10:11:11Z</time></trkpt><trkpt lat="51.7343230918" lon="-1.7372164037"><ele>115.98</ele><time>2014-04-02T10:11:25Z</time></trkpt><trkpt lat="51.7343282886" lon="-1.7371682916"><ele>115.98</ele><time>2014-04-02T10:11:37Z</time></trkpt><trkpt lat="51.7342985328" lon="-1.7370258830"><ele>115.98</ele><time>2014-04-02T10:11:50Z</time></trkpt><trkpt lat="51.7342940904" lon="-1.7369794473"><ele>114.53</ele><time>2014-04-02T10:11:53Z</time></trkpt><trkpt lat="51.7342168093" lon="-1.7368477676"><ele>115.01</ele><time>2014-04-02T10:12:07Z</time></trkpt><trkpt lat="51.7341178190" lon="-1.7366839852"><ele>115.01</ele><time>2014-04-02T10:12:22Z</time></trkpt><trkpt lat="51.7340492550" lon="-1.7365375534"><ele>114.53</ele><time>2014-04-02T10:12:36Z</time></trkpt><trkpt lat="51.7339746561" lon="-1.7364824004"><ele>115.01</ele><time>2014-04-02T10:12:48Z</time></trkpt><trkpt lat="51.7338494305" lon="-1.7363618687"><ele>115.01</ele><time>2014-04-02T10:13:01Z</time></trkpt><trkpt lat="51.7337103747" lon="-1.7362221424"><ele>114.53</ele><time>2014-04-02T10:13:17Z</time></trkpt><trkpt lat="51.7336099595" lon="-1.7361268401"><ele>114.05</ele><time>2014-04-02T10:13:30Z</time></trkpt><trkpt lat="51.7334899306" lon="-1.7360121757"><ele>114.53</ele><time>2014-04-02T10:13:43Z</time></trkpt><trkpt lat="51.7333896831" lon="-1.7358825076"><ele>113.57</ele><time>2014-04-02T10:13:55Z</time></trkpt><trkpt lat="51.7332688160" lon="-1.7357685138"><ele>113.09</ele><time>2014-04-02T10:14:10Z</time></trkpt><trkpt lat="51.7331479490" lon="-1.7356447969"><ele>113.09</ele><time>2014-04-02T10:14:24Z</time></trkpt><trkpt lat="51.7331036925" lon="-1.7355903145"><ele>113.57</ele><time>2014-04-02T10:14:30Z</time></trkpt><trkpt lat="51.7329703365" lon="-1.7354548629"><ele>113.57</ele><time>2014-04-02T10:14:47Z</time></trkpt><trkpt lat="51.7329655588" lon="-1.7354528513"><ele>113.57</ele><time>2014-04-02T10:14:48Z</time></trkpt><trkpt lat="51.7329315282" lon="-1.7354169767"><ele>113.09</ele><time>2014-04-02T10:14:52Z</time></trkpt><trkpt lat="51.7328434344" lon="-1.7354170606"><ele>113.57</ele><time>2014-04-02T10:15:04Z</time></trkpt><trkpt lat="51.7328306939" lon="-1.7354339082"><ele>114.05</ele><time>2014-04-02T10:15:10Z</time></trkpt><trkpt lat="51.7328015249" lon="-1.7354354169"><ele>113.09</ele><time>2014-04-02T10:15:13Z</time></trkpt><trkpt lat="51.7327236570" lon="-1.7353328224"><ele>113.09</ele><time>2014-04-02T10:15:22Z</time></trkpt><trkpt lat="51.7325876188" lon="-1.7351818644"><ele>112.61</ele><time>2014-04-02T10:15:38Z</time></trkpt><trkpt lat="51.7324655782" lon="-1.7350355163"><ele>112.61</ele><time>2014-04-02T10:15:50Z</time></trkpt><trkpt lat="51.7323484831" lon="-1.7349077761"><ele>111.65</ele><time>2014-04-02T10:16:02Z</time></trkpt><trkpt lat="51.7322130315" lon="-1.7347659543"><ele>112.61</ele><time>2014-04-02T10:16:15Z</time></trkpt><trkpt lat="51.7321500834" lon="-1.7348424811"><ele>112.61</ele><time>2014-04-02T10:16:32Z</time></trkpt><trkpt lat="51.7321479041" lon="-1.7348439898"><ele>112.61</ele><time>2014-04-02T10:16:34Z</time></trkpt><trkpt lat="51.7321302183" lon="-1.7347922735"><ele>112.61</ele><time>2014-04-02T10:16:37Z</time></trkpt><trkpt lat="51.7320271209" lon="-1.7345894314"><ele>112.61</ele><time>2014-04-02T10:16:50Z</time></trkpt><trkpt lat="51.7320029810" lon="-1.7345540598"><ele>112.13</ele><time>2014-04-02T10:16:53Z</time></trkpt><trkpt lat="51.7319622450" lon="-1.7344990745"><ele>112.13</ele><time>2014-04-02T10:16:58Z</time></trkpt><trkpt lat="51.7318852991" lon="-1.7344380543"><ele>111.65</ele><time>2014-04-02T10:17:08Z</time></trkpt><trkpt lat="51.7318532802" lon="-1.7344176024"><ele>111.65</ele><time>2014-04-02T10:17:11Z</time></trkpt><trkpt lat="51.7316912580" lon="-1.7342086416"><ele>111.65</ele><time>2014-04-02T10:17:24Z</time></trkpt><trkpt lat="51.7316341773" lon="-1.7341753654"><ele>112.13</ele><time>2014-04-02T10:17:29Z</time></trkpt><trkpt lat="51.7316095345" lon="-1.7341462802"><ele>113.09</ele><time>2014-04-02T10:17:31Z</time></trkpt><trkpt lat="51.7314664554" lon="-1.7340210546"><ele>114.05</ele><time>2014-04-02T10:17:46Z</time></trkpt><trkpt lat="51.7314662877" lon="-1.7339628004"><ele>113.09</ele><time>2014-04-02T10:17:54Z</time></trkpt><trkpt lat="51.7314657010" lon="-1.7338705156"><ele>113.57</ele><time>2014-04-02T10:18:01Z</time></trkpt><trkpt lat="51.7314523738" lon="-1.7338198889"><ele>113.09</ele><time>2014-04-02T10:18:08Z</time></trkpt><trkpt lat="51.7314620130" lon="-1.7339171190"><ele>113.57</ele><time>2014-04-02T10:18:14Z</time></trkpt><trkpt lat="51.7315442394" lon="-1.7340847570"><ele>113.57</ele><time>2014-04-02T10:18:27Z</time></trkpt><trkpt lat="51.7316126358" lon="-1.7340894509"><ele>112.61</ele><time>2014-04-02T10:18:34Z</time></trkpt><trkpt lat="51.7315948661" lon="-1.7337379977"><ele>112.13</ele><time>2014-04-02T10:18:51Z</time></trkpt><trkpt lat="51.7315830477" lon="-1.7334121093"><ele>112.13</ele><time>2014-04-02T10:19:06Z</time></trkpt><trkpt lat="51.7315797787" lon="-1.7330912501"><ele>111.65</ele><time>2014-04-02T10:19:20Z</time></trkpt><trkpt lat="51.7315873224" lon="-1.7327774316"><ele>111.65</ele><time>2014-04-02T10:19:35Z</time></trkpt><trkpt lat="51.7316071875" lon="-1.7325346079"><ele>111.65</ele><time>2014-04-02T10:19:51Z</time></trkpt><trkpt lat="51.7316156533" lon="-1.7322871741"><ele>110.21</ele><time>2014-04-02T10:20:07Z</time></trkpt><trkpt lat="51.7316273041" lon="-1.7321312707"><ele>110.69</ele><time>2014-04-02T10:20:21Z</time></trkpt><trkpt lat="51.7315967940" lon="-1.7320518102"><ele>110.69</ele><time>2014-04-02T10:20:37Z</time></trkpt><trkpt lat="51.7315837182" lon="-1.7320092302"><ele>110.21</ele><time>2014-04-02T10:20:58Z</time></trkpt><trkpt lat="51.7315503582" lon="-1.7319920473"><ele>111.17</ele><time>2014-04-02T10:21:16Z</time></trkpt><trkpt lat="51.7315413896" lon="-1.7319606990"><ele>110.69</ele><time>2014-04-02T10:21:54Z</time></trkpt><trkpt lat="51.7315408867" lon="-1.7319572624"><ele>111.17</ele><time>2014-04-02T10:22:13Z</time></trkpt><trkpt lat="51.7315466702" lon="-1.7319627944"><ele>110.69</ele><time>2014-04-02T10:22:32Z</time></trkpt><trkpt lat="51.7315612547" lon="-1.7319230642"><ele>110.21</ele><time>2014-04-02T10:22:48Z</time></trkpt><trkpt lat="51.7315509450" lon="-1.7316741217"><ele>109.25</ele><time>2014-04-02T10:23:06Z</time></trkpt><trkpt lat="51.7315377854" lon="-1.7313573696"><ele>108.77</ele><time>2014-04-02T10:23:25Z</time></trkpt><trkpt lat="51.7315190937" lon="-1.7310679425"><ele>108.29</ele><time>2014-04-02T10:23:43Z</time></trkpt><trkpt lat="51.7315094545" lon="-1.7308261245"><ele>106.84</ele><time>2014-04-02T10:23:59Z</time></trkpt><trkpt lat="51.7314896733" lon="-1.7305544671"><ele>106.36</ele><time>2014-04-02T10:24:16Z</time></trkpt><trkpt lat="51.7314889189" lon="-1.7302798759"><ele>105.40</ele><time>2014-04-02T10:24:36Z</time></trkpt><trkpt lat="51.7314780224" lon="-1.7300632875"><ele>105.88</ele><time>2014-04-02T10:24:49Z</time></trkpt><trkpt lat="51.7314812914" lon="-1.7299962323"><ele>105.40</ele><time>2014-04-02T10:25:04Z</time></trkpt><trkpt lat="51.7314887512" lon="-1.7299684044"><ele>104.92</ele><time>2014-04-02T10:25:19Z</time></trkpt><trkpt lat="51.7314341851" lon="-1.7297320347"><ele>105.88</ele><time>2014-04-02T10:25:34Z</time></trkpt><trkpt lat="51.7314385436" lon="-1.7295912188"><ele>104.92</ele><time>2014-04-02T10:25:52Z</time></trkpt><trkpt lat="51.7314354423" lon="-1.7294124328"><ele>103.96</ele><time>2014-04-02T10:26:12Z</time></trkpt><trkpt lat="51.7314140685" lon="-1.7291897256"><ele>103.96</ele><time>2014-04-02T10:26:28Z</time></trkpt><trkpt lat="51.7314108834" lon="-1.7290121131"><ele>103.48</ele><time>2014-04-02T10:26:44Z</time></trkpt><trkpt lat="51.7313827202" lon="-1.7287702113"><ele>102.52</ele><time>2014-04-02T10:27:03Z</time></trkpt><trkpt lat="51.7313407268" lon="-1.7285220232"><ele>102.52</ele><time>2014-04-02T10:27:20Z</time></trkpt><trkpt lat="51.7312997393" lon="-1.7283270601"><ele>102.04</ele><time>2014-04-02T10:27:33Z</time></trkpt><trkpt lat="51.7312749289" lon="-1.7281725816"><ele>101.56</ele><time>2014-04-02T10:27:50Z</time></trkpt><trkpt lat="51.7312344443" lon="-1.7279378884"><ele>100.60</ele><time>2014-04-02T10:28:07Z</time></trkpt><trkpt lat="51.7312067840" lon="-1.7278093938"><ele>100.11</ele><time>2014-04-02T10:28:24Z</time></trkpt><trkpt lat="51.7311640363" lon="-1.7276681587"><ele>99.15</ele><time>2014-04-02T10:28:43Z</time></trkpt><trkpt lat="51.7310972326" lon="-1.7274876125"><ele>98.19</ele><time>2014-04-02T10:29:01Z</time></trkpt><trkpt lat="51.7310190294" lon="-1.7272600438"><ele>98.19</ele><time>2014-04-02T10:29:19Z</time></trkpt><trkpt lat="51.7309271637" lon="-1.7270696070"><ele>97.71</ele><time>2014-04-02T10:29:38Z</time></trkpt><trkpt lat="51.7309012637" lon="-1.7269741371"><ele>97.23</ele><time>2014-04-02T10:29:57Z</time></trkpt><trkpt lat="51.7308927979" lon="-1.7269535176"><ele>97.71</ele><time>2014-04-02T10:30:00Z</time></trkpt><trkpt lat="51.7308042850" lon="-1.7267254461"><ele>97.71</ele><time>2014-04-02T10:30:17Z</time></trkpt><trkpt lat="51.7307678238" lon="-1.7265864741"><ele>98.19</ele><time>2014-04-02T10:30:29Z</time></trkpt><trkpt lat="51.7307073902" lon="-1.7264040001"><ele>98.67</ele><time>2014-04-02T10:30:46Z</time></trkpt><trkpt lat="51.7307021935" lon="-1.7263343465"><ele>98.19</ele><time>2014-04-02T10:31:04Z</time></trkpt><trkpt lat="51.7306417599" lon="-1.7261852324"><ele>98.67</ele><time>2014-04-02T10:31:16Z</time></trkpt><trkpt lat="51.7305747885" lon="-1.7260199413"><ele>98.19</ele><time>2014-04-02T10:31:31Z</time></trkpt><trkpt lat="51.7305234075" lon="-1.7258789577"><ele>98.67</ele><time>2014-04-02T10:31:45Z</time></trkpt><trkpt lat="51.7305036262" lon="-1.7258179374"><ele>98.67</ele><time>2014-04-02T10:31:57Z</time></trkpt><trkpt lat="51.7304880358" lon="-1.7257240601"><ele>98.67</ele><time>2014-04-02T10:32:13Z</time></trkpt><trkpt lat="51.7304758821" lon="-1.7255334556"><ele>99.63</ele><time>2014-04-02T10:32:30Z</time></trkpt><trkpt lat="51.7304738704" lon="-1.7253088206"><ele>100.60</ele><time>2014-04-02T10:32:46Z</time></trkpt><trkpt lat="51.7304232437" lon="-1.7250892147"><ele>101.56</ele><time>2014-04-02T10:33:02Z</time></trkpt><trkpt lat="51.7304341402" lon="-1.7250596266"><ele>102.04</ele><time>2014-04-02T10:33:26Z</time></trkpt><trkpt lat="51.7304508202" lon="-1.7250563577"><ele>101.56</ele><time>2014-04-02T10:33:56Z</time></trkpt><trkpt lat="51.7304401752" lon="-1.7250122689"><ele>102.04</ele><time>2014-04-02T10:34:16Z</time></trkpt><trkpt lat="51.7303603794" lon="-1.7248053197"><ele>103.48</ele><time>2014-04-02T10:34:35Z</time></trkpt><trkpt lat="51.7302728724" lon="-1.7246304732"><ele>103.48</ele><time>2014-04-02T10:34:50Z</time></trkpt><trkpt lat="51.7302452121" lon="-1.7245425470"><ele>104.44</ele><time>2014-04-02T10:35:06Z</time></trkpt><trkpt lat="51.7302546836" lon="-1.7244687025"><ele>105.40</ele><time>2014-04-02T10:35:21Z</time></trkpt><trkpt lat="51.7302493192" lon="-1.7243529484"><ele>105.40</ele><time>2014-04-02T10:35:30Z</time></trkpt><trkpt lat="51.7301620636" lon="-1.7239665426"><ele>106.84</ele><time>2014-04-02T10:35:46Z</time></trkpt><trkpt lat="51.7301353253" lon="-1.7237922829"><ele>107.32</ele><time>2014-04-02T10:36:01Z</time></trkpt><trkpt lat="51.7300570384" lon="-1.7235181946"><ele>108.29</ele><time>2014-04-02T10:36:16Z</time></trkpt><trkpt lat="51.7299911566" lon="-1.7233123351"><ele>109.25</ele><time>2014-04-02T10:36:30Z</time></trkpt><trkpt lat="51.7299997061" lon="-1.7232433520"><ele>109.25</ele><time>2014-04-02T10:36:44Z</time></trkpt><trkpt lat="51.7300017178" lon="-1.7232362274"><ele>108.77</ele><time>2014-04-02T10:37:12Z</time></trkpt><trkpt lat="51.7299891450" lon="-1.7232480459"><ele>108.77</ele><time>2014-04-02T10:37:38Z</time></trkpt><trkpt lat="51.7299886420" lon="-1.7232238222"><ele>108.77</ele><time>2014-04-02T10:37:52Z</time></trkpt><trkpt lat="51.7299900670" lon="-1.7231891211"><ele>108.77</ele><time>2014-04-02T10:38:12Z</time></trkpt><trkpt lat="51.7299505882" lon="-1.7230442818"><ele>108.77</ele><time>2014-04-02T10:38:25Z</time></trkpt><trkpt lat="51.7298743967" lon="-1.7228805833"><ele>108.29</ele><time>2014-04-02T10:38:39Z</time></trkpt><trkpt lat="51.7298286315" lon="-1.7226556968"><ele>108.29</ele><time>2014-04-02T10:38:55Z</time></trkpt><trkpt lat="51.7297861353" lon="-1.7225484923"><ele>108.29</ele><time>2014-04-02T10:39:08Z</time></trkpt><trkpt lat="51.7297582235" lon="-1.7224706244"><ele>108.77</ele><time>2014-04-02T10:39:28Z</time></trkpt><trkpt lat="51.7297469079" lon="-1.7222851329"><ele>108.29</ele><time>2014-04-02T10:39:42Z</time></trkpt><trkpt lat="51.7296986282" lon="-1.7220244557"><ele>108.77</ele><time>2014-04-02T10:40:00Z</time></trkpt><trkpt lat="51.7296374403" lon="-1.7217320949"><ele>108.29</ele><time>2014-04-02T10:40:18Z</time></trkpt><trkpt lat="51.7295919266" lon="-1.7215332761"><ele>108.77</ele><time>2014-04-02T10:40:31Z</time></trkpt><trkpt lat="51.7295816168" lon="-1.7213118263"><ele>108.29</ele><time>2014-04-02T10:40:49Z</time></trkpt><trkpt lat="51.7295811977" lon="-1.7212441843"><ele>107.32</ele><time>2014-04-02T10:40:52Z</time></trkpt><trkpt lat="51.7295275535" lon="-1.7209162004"><ele>108.29</ele><time>2014-04-02T10:41:10Z</time></trkpt><trkpt lat="51.7295146454" lon="-1.7207743786"><ele>107.81</ele><time>2014-04-02T10:41:20Z</time></trkpt><trkpt lat="51.7294986360" lon="-1.7205836903"><ele>107.81</ele><time>2014-04-02T10:41:31Z</time></trkpt><trkpt lat="51.7294116318" lon="-1.7201859690"><ele>106.84</ele><time>2014-04-02T10:41:53Z</time></trkpt><trkpt lat="51.7294006515" lon="-1.7200893257"><ele>106.84</ele><time>2014-04-02T10:42:00Z</time></trkpt><trkpt lat="51.7293848936" lon="-1.7200366873"><ele>106.84</ele><time>2014-04-02T10:42:03Z</time></trkpt><trkpt lat="51.7292944528" lon="-1.7197269760"><ele>106.36</ele><time>2014-04-02T10:42:18Z</time></trkpt><trkpt lat="51.7292775214" lon="-1.7195792031"><ele>105.88</ele><time>2014-04-02T10:42:32Z</time></trkpt><trkpt lat="51.7292705644" lon="-1.7195432447"><ele>105.88</ele><time>2014-04-02T10:42:34Z</time></trkpt><trkpt lat="51.7291932832" lon="-1.7193049472"><ele>105.88</ele><time>2014-04-02T10:42:52Z</time></trkpt><trkpt lat="51.7291140743" lon="-1.7190653924"><ele>104.44</ele><time>2014-04-02T10:43:07Z</time></trkpt><trkpt lat="51.7290087137" lon="-1.7187163699"><ele>103.96</ele><time>2014-04-02T10:43:26Z</time></trkpt><trkpt lat="51.7288900260" lon="-1.7184500769"><ele>103.48</ele><time>2014-04-02T10:43:45Z</time></trkpt><trkpt lat="51.7288019322" lon="-1.7182230949"><ele>103.00</ele><time>2014-04-02T10:44:06Z</time></trkpt><trkpt lat="51.7287422530" lon="-1.7180718016"><ele>102.04</ele><time>2014-04-02T10:44:22Z</time></trkpt><trkpt lat="51.7286341265" lon="-1.7177949473"><ele>101.56</ele><time>2014-04-02T10:44:42Z</time></trkpt><trkpt lat="51.7286154348" lon="-1.7177558877"><ele>101.56</ele><time>2014-04-02T10:44:45Z</time></trkpt><trkpt lat="51.7285286821" lon="-1.7175717372"><ele>101.08</ele><time>2014-04-02T10:45:00Z</time></trkpt><trkpt lat="51.7285070568" lon="-1.7175420653"><ele>101.08</ele><time>2014-04-02T10:45:02Z</time></trkpt><trkpt lat="51.7283624690" lon="-1.7172533926"><ele>100.60</ele><time>2014-04-02T10:45:21Z</time></trkpt><trkpt lat="51.7283167038" lon="-1.7170839943"><ele>100.11</ele><time>2014-04-02T10:45:33Z</time></trkpt><trkpt lat="51.7282968387" lon="-1.7169744428"><ele>100.60</ele><time>2014-04-02T10:45:42Z</time></trkpt><trkpt lat="51.7283442803" lon="-1.7168710940"><ele>99.63</ele><time>2014-04-02T10:45:55Z</time></trkpt><trkpt lat="51.7283951584" lon="-1.7167073116"><ele>100.60</ele><time>2014-04-02T10:46:08Z</time></trkpt><trkpt lat="51.7284148559" lon="-1.7166839261"><ele>100.60</ele><time>2014-04-02T10:46:23Z</time></trkpt><trkpt lat="51.7284453660" lon="-1.7165738717"><ele>99.15</ele><time>2014-04-02T10:46:47Z</time></trkpt><trkpt lat="51.7284609564" lon="-1.7165473010"><ele>99.63</ele><time>2014-04-02T10:46:49Z</time></trkpt><trkpt lat="51.7285481282" lon="-1.7164178845"><ele>100.11</ele><time>2014-04-02T10:47:00Z</time></trkpt><trkpt lat="51.7286441009" lon="-1.7161627393"><ele>99.15</ele><time>2014-04-02T10:47:18Z</time></trkpt><trkpt lat="51.7287119944" lon="-1.7159488332"><ele>98.19</ele><time>2014-04-02T10:47:33Z</time></trkpt><trkpt lat="51.7287976574" lon="-1.7156699672"><ele>98.19</ele><time>2014-04-02T10:47:51Z</time></trkpt><trkpt lat="51.7288746033" lon="-1.7153832223"><ele>97.71</ele><time>2014-04-02T10:48:10Z</time></trkpt><trkpt lat="51.7288886011" lon="-1.7151437514"><ele>96.75</ele><time>2014-04-02T10:48:26Z</time></trkpt><trkpt lat="51.7287974060" lon="-1.7148999218"><ele>96.75</ele><time>2014-04-02T10:48:42Z</time></trkpt><trkpt lat="51.7287780438" lon="-1.7148290109"><ele>96.75</ele><time>2014-04-02T10:48:46Z</time></trkpt><trkpt lat="51.7286762875" lon="-1.7146622110"><ele>96.75</ele><time>2014-04-02T10:49:01Z</time></trkpt><trkpt lat="51.7286652233" lon="-1.7146508954"><ele>96.75</ele><time>2014-04-02T10:49:02Z</time></trkpt><trkpt lat="51.7285392433" lon="-1.7144964170"><ele>95.79</ele><time>2014-04-02T10:49:16Z</time></trkpt><trkpt lat="51.7284844257" lon="-1.7143837642"><ele>95.79</ele><time>2014-04-02T10:49:30Z</time></trkpt><trkpt lat="51.7284884490" lon="-1.7143843509"><ele>96.27</ele><time>2014-04-02T10:49:55Z</time></trkpt><trkpt lat="51.7284912989" lon="-1.7143626418"><ele>96.27</ele><time>2014-04-02T10:50:13Z</time></trkpt><trkpt lat="51.7284928914" lon="-1.7143612169"><ele>95.79</ele><time>2014-04-02T10:50:32Z</time></trkpt><trkpt lat="51.7284990940" lon="-1.7143594567"><ele>96.27</ele><time>2014-04-02T10:50:51Z</time></trkpt><trkpt lat="51.7284953222" lon="-1.7142722011"><ele>95.31</ele><time>2014-04-02T10:51:07Z</time></trkpt><trkpt lat="51.7285033688" lon="-1.7141913157"><ele>95.31</ele><time>2014-04-02T10:51:20Z</time></trkpt><trkpt lat="51.7285388242" lon="-1.7140763998"><ele>94.83</ele><time>2014-04-02T10:51:34Z</time></trkpt><trkpt lat="51.7285763752" lon="-1.7138370965"><ele>94.83</ele><time>2014-04-02T10:51:50Z</time></trkpt><trkpt lat="51.7286073044" lon="-1.7136987112"><ele>94.35</ele><time>2014-04-02T10:52:03Z</time></trkpt><trkpt lat="51.7286622059" lon="-1.7135066818"><ele>94.83</ele><time>2014-04-02T10:52:17Z</time></trkpt><trkpt lat="51.7287166882" lon="-1.7134113796"><ele>94.83</ele><time>2014-04-02T10:52:29Z</time></trkpt><trkpt lat="51.7287373077" lon="-1.7132816277"><ele>95.31</ele><time>2014-04-02T10:52:37Z</time></trkpt><trkpt lat="51.7288091406" lon="-1.7130577471"><ele>94.83</ele><time>2014-04-02T10:52:54Z</time></trkpt><trkpt lat="51.7288600188" lon="-1.7129428312"><ele>94.35</ele><time>2014-04-02T10:53:06Z</time></trkpt><trkpt lat="51.7289541475" lon="-1.7127937172"><ele>94.35</ele><time>2014-04-02T10:53:20Z</time></trkpt><trkpt lat="51.7290777806" lon="-1.7126028612"><ele>94.35</ele><time>2014-04-02T10:53:38Z</time></trkpt><trkpt lat="51.7291535530" lon="-1.7124843411"><ele>94.35</ele><time>2014-04-02T10:53:51Z</time></trkpt><trkpt lat="51.7292796168" lon="-1.7123756278"><ele>93.87</ele><time>2014-04-02T10:54:06Z</time></trkpt><trkpt lat="51.7294333410" lon="-1.7122454569"><ele>94.35</ele><time>2014-04-02T10:54:23Z</time></trkpt><trkpt lat="51.7296013143" lon="-1.7121714447"><ele>94.83</ele><time>2014-04-02T10:54:40Z</time></trkpt><trkpt lat="51.7296840437" lon="-1.7121555191"><ele>94.83</ele><time>2014-04-02T10:54:46Z</time></trkpt><trkpt lat="51.7297022324" lon="-1.7121437006"><ele>94.83</ele><time>2014-04-02T10:54:49Z</time></trkpt><trkpt lat="51.7298141308" lon="-1.7120217439"><ele>95.31</ele><time>2014-04-02T10:55:02Z</time></trkpt><trkpt lat="51.7298894003" lon="-1.7120483145"><ele>94.83</ele><time>2014-04-02T10:55:18Z</time></trkpt><trkpt lat="51.7300481535" lon="-1.7120155413"><ele>95.31</ele><time>2014-04-02T10:55:34Z</time></trkpt><trkpt lat="51.7301881313" lon="-1.7119584605"><ele>96.27</ele><time>2014-04-02T10:55:51Z</time></trkpt><trkpt lat="51.7302432004" lon="-1.7119229212"><ele>95.79</ele><time>2014-04-02T10:55:58Z</time></trkpt><trkpt lat="51.7303591222" lon="-1.7119401880"><ele>96.75</ele><time>2014-04-02T10:56:08Z</time></trkpt><trkpt lat="51.7303557694" lon="-1.7119587958"><ele>96.27</ele><time>2014-04-02T10:56:31Z</time></trkpt><trkpt lat="51.7303747963" lon="-1.7119736318"><ele>97.23</ele><time>2014-04-02T10:56:48Z</time></trkpt><trkpt lat="51.7304861080" lon="-1.7120009568"><ele>96.75</ele><time>2014-04-02T10:57:05Z</time></trkpt><trkpt lat="51.7305913009" lon="-1.7120561935"><ele>97.23</ele><time>2014-04-02T10:57:19Z</time></trkpt><trkpt lat="51.7307132576" lon="-1.7121802457"><ele>97.23</ele><time>2014-04-02T10:57:34Z</time></trkpt><trkpt lat="51.7308684066" lon="-1.7123297788"><ele>97.23</ele><time>2014-04-02T10:57:51Z</time></trkpt><trkpt lat="51.7308808956" lon="-1.7124044616"><ele>97.71</ele><time>2014-04-02T10:58:07Z</time></trkpt><trkpt lat="51.7308881879" lon="-1.7124348879"><ele>97.23</ele><time>2014-04-02T10:58:10Z</time></trkpt><trkpt lat="51.7310370505" lon="-1.7126345448"><ele>98.67</ele><time>2014-04-02T10:58:26Z</time></trkpt><trkpt lat="51.7311711609" lon="-1.7127738521"><ele>98.67</ele><time>2014-04-02T10:58:43Z</time></trkpt><trkpt lat="51.7312169261" lon="-1.7126953974"><ele>98.19</ele><time>2014-04-02T10:59:03Z</time></trkpt><trkpt lat="51.7312544771" lon="-1.7125979159"><ele>99.15</ele><time>2014-04-02T10:59:14Z</time></trkpt><trkpt lat="51.7313040141" lon="-1.7125466187"><ele>98.67</ele><time>2014-04-02T10:59:28Z</time></trkpt><trkpt lat="51.7313004099" lon="-1.7124522384"><ele>98.19</ele><time>2014-04-02T10:59:39Z</time></trkpt><trkpt lat="51.7313246336" lon="-1.7124101613"><ele>98.19</ele><time>2014-04-02T10:59:58Z</time></trkpt><trkpt lat="51.7313610949" lon="-1.7123638932"><ele>97.71</ele><time>2014-04-02T11:00:02Z</time></trkpt><trkpt lat="51.7314136494" lon="-1.7122778948"><ele>98.19</ele><time>2014-04-02T11:00:06Z</time></trkpt><trkpt lat="51.7314384598" lon="-1.7121860292"><ele>97.23</ele><time>2014-04-02T11:00:17Z</time></trkpt><trkpt lat="51.7314494401" lon="-1.7121589556"><ele>97.23</ele><time>2014-04-02T11:00:25Z</time></trkpt><trkpt lat="51.7314623483" lon="-1.7120748013"><ele>97.23</ele><time>2014-04-02T11:00:42Z</time></trkpt><trkpt lat="51.7315077782" lon="-1.7119350750"><ele>96.75</ele><time>2014-04-02T11:00:55Z</time></trkpt><trkpt lat="51.7315405514" lon="-1.7118080892"><ele>95.79</ele><time>2014-04-02T11:01:03Z</time></trkpt><trkpt lat="51.7315547168" lon="-1.7117261980"><ele>96.27</ele><time>2014-04-02T11:01:09Z</time></trkpt><trkpt lat="51.7315930221" lon="-1.7116902396"><ele>95.79</ele><time>2014-04-02T11:01:13Z</time></trkpt><trkpt lat="51.7317286413" lon="-1.7114415485"><ele>93.87</ele><time>2014-04-02T11:01:31Z</time></trkpt><trkpt lat="51.7317710537" lon="-1.7113280576"><ele>93.39</ele><time>2014-04-02T11:01:38Z</time></trkpt><trkpt lat="51.7318770010" lon="-1.7111225333"><ele>91.94</ele><time>2014-04-02T11:01:54Z</time></trkpt><trkpt lat="51.7319654301" lon="-1.7109473515"><ele>91.46</ele><time>2014-04-02T11:02:10Z</time></trkpt><trkpt lat="51.7320445552" lon="-1.7107635364"><ele>90.02</ele><time>2014-04-02T11:02:25Z</time></trkpt><trkpt lat="51.7321205791" lon="-1.7105872650"><ele>89.54</ele><time>2014-04-02T11:02:38Z</time></trkpt><trkpt lat="51.7322181445" lon="-1.7103987560"><ele>89.06</ele><time>2014-04-02T11:02:52Z</time></trkpt><trkpt lat="51.7323043104" lon="-1.7102256697"><ele>89.06</ele><time>2014-04-02T11:03:05Z</time></trkpt><trkpt lat="51.7323238403" lon="-1.7101901304"><ele>89.06</ele><time>2014-04-02T11:03:08Z</time></trkpt><trkpt lat="51.7323831003" lon="-1.7100869492"><ele>89.54</ele><time>2014-04-02T11:03:16Z</time></trkpt><trkpt lat="51.7324764747" lon="-1.7099032179"><ele>89.54</ele><time>2014-04-02T11:03:30Z</time></trkpt><trkpt lat="51.7325439490" lon="-1.7097976897"><ele>89.06</ele><time>2014-04-02T11:03:38Z</time></trkpt><trkpt lat="51.7326293606" lon="-1.7095832806"><ele>88.58</ele><time>2014-04-02T11:03:53Z</time></trkpt><trkpt lat="51.7327018641" lon="-1.7094029859"><ele>88.10</ele><time>2014-04-02T11:04:06Z</time></trkpt><trkpt lat="51.7327099945" lon="-1.7092068493"><ele>88.58</ele><time>2014-04-02T11:04:20Z</time></trkpt><trkpt lat="51.7327450309" lon="-1.7091444042"><ele>88.58</ele><time>2014-04-02T11:04:34Z</time></trkpt><trkpt lat="51.7327818274" lon="-1.7091269698"><ele>88.58</ele><time>2014-04-02T11:04:39Z</time></trkpt><trkpt lat="51.7328315321" lon="-1.7089766823"><ele>89.06</ele><time>2014-04-02T11:04:54Z</time></trkpt><trkpt lat="51.7328570969" lon="-1.7088253889"><ele>89.06</ele><time>2014-04-02T11:05:10Z</time></trkpt><trkpt lat="51.7328330409" lon="-1.7087479401"><ele>88.58</ele><time>2014-04-02T11:05:27Z</time></trkpt><trkpt lat="51.7328573484" lon="-1.7087070365"><ele>88.58</ele><time>2014-04-02T11:05:45Z</time></trkpt><trkpt lat="51.7328493018" lon="-1.7086969782"><ele>88.58</ele><time>2014-04-02T11:06:01Z</time></trkpt><trkpt lat="51.7329156026" lon="-1.7086020950"><ele>88.58</ele><time>2014-04-02T11:06:18Z</time></trkpt><trkpt lat="51.7331015971" lon="-1.7084553279"><ele>89.54</ele><time>2014-04-02T11:06:36Z</time></trkpt><trkpt lat="51.7331932951" lon="-1.7083880212"><ele>89.06</ele><time>2014-04-02T11:06:47Z</time></trkpt><trkpt lat="51.7332309298" lon="-1.7083689105"><ele>89.54</ele><time>2014-04-02T11:07:03Z</time></trkpt><trkpt lat="51.7332714982" lon="-1.7083852552"><ele>88.58</ele><time>2014-04-02T11:07:16Z</time></trkpt><trkpt lat="51.7332953028" lon="-1.7083876859"><ele>89.06</ele><time>2014-04-02T11:07:37Z</time></trkpt><trkpt lat="51.7333332729" lon="-1.7083303537"><ele>89.06</ele><time>2014-04-02T11:07:50Z</time></trkpt><trkpt lat="51.7334883381" lon="-1.7081253324"><ele>88.58</ele><time>2014-04-02T11:08:04Z</time></trkpt><trkpt lat="51.7335821316" lon="-1.7079888750"><ele>89.06</ele><time>2014-04-02T11:08:16Z</time></trkpt><trkpt lat="51.7336662021" lon="-1.7079257593"><ele>89.54</ele><time>2014-04-02T11:08:31Z</time></trkpt><trkpt lat="51.7337429803" lon="-1.7079058941"><ele>89.54</ele><time>2014-04-02T11:08:44Z</time></trkpt><trkpt lat="51.7337541282" lon="-1.7078737915"><ele>90.02</ele><time>2014-04-02T11:08:48Z</time></trkpt><trkpt lat="51.7338203453" lon="-1.7078230809"><ele>90.50</ele><time>2014-04-02T11:09:01Z</time></trkpt><trkpt lat="51.7339273822" lon="-1.7077363282"><ele>89.54</ele><time>2014-04-02T11:09:11Z</time></trkpt><trkpt lat="51.7339958623" lon="-1.7077412736"><ele>90.02</ele><time>2014-04-02T11:09:34Z</time></trkpt><trkpt lat="51.7340448964" lon="-1.7077077460"><ele>90.50</ele><time>2014-04-02T11:09:56Z</time></trkpt><trkpt lat="51.7341096047" lon="-1.7076820973"><ele>89.54</ele><time>2014-04-02T11:10:03Z</time></trkpt><trkpt lat="51.7342475709" lon="-1.7076852825"><ele>90.02</ele><time>2014-04-02T11:10:16Z</time></trkpt><trkpt lat="51.7343050707" lon="-1.7076981068"><ele>89.54</ele><time>2014-04-02T11:10:20Z</time></trkpt><trkpt lat="51.7344055697" lon="-1.7077164631"><ele>90.02</ele><time>2014-04-02T11:10:25Z</time></trkpt><trkpt lat="51.7345112655" lon="-1.7077306286"><ele>90.02</ele><time>2014-04-02T11:10:37Z</time></trkpt><trkpt lat="51.7345541809" lon="-1.7077335622"><ele>90.02</ele><time>2014-04-02T11:10:41Z</time></trkpt><trkpt lat="51.7347146943" lon="-1.7078065686"><ele>90.02</ele><time>2014-04-02T11:10:55Z</time></trkpt><trkpt lat="51.7348024528" lon="-1.7078403477"><ele>90.50</ele><time>2014-04-02T11:11:08Z</time></trkpt><trkpt lat="51.7349764612" lon="-1.7078877054"><ele>89.54</ele><time>2014-04-02T11:11:20Z</time></trkpt><trkpt lat="51.7350336257" lon="-1.7079033796"><ele>90.02</ele><time>2014-04-02T11:11:23Z</time></trkpt><trkpt lat="51.7351199593" lon="-1.7079171259"><ele>90.02</ele><time>2014-04-02T11:11:34Z</time></trkpt><trkpt lat="51.7351814825" lon="-1.7079204787"><ele>90.02</ele><time>2014-04-02T11:11:50Z</time></trkpt><trkpt lat="51.7352546565" lon="-1.7079555988"><ele>90.02</ele><time>2014-04-02T11:12:10Z</time></trkpt><trkpt lat="51.7353782896" lon="-1.7079588678"><ele>82.81</ele><time>2014-04-02T11:12:28Z</time></trkpt><trkpt lat="51.7353821453" lon="-1.7079598736"><ele>90.02</ele><time>2014-04-02T11:12:29Z</time></trkpt><trkpt lat="51.7355160881" lon="-1.7079566885"><ele>90.02</ele><time>2014-04-02T11:12:45Z</time></trkpt><trkpt lat="51.7355561536" lon="-1.7079898808"><ele>91.46</ele><time>2014-04-02T11:13:01Z</time></trkpt><trkpt lat="51.7356434092" lon="-1.7079514917"><ele>90.50</ele><time>2014-04-02T11:13:17Z</time></trkpt><trkpt lat="51.7358134780" lon="-1.7078789882"><ele>90.98</ele><time>2014-04-02T11:13:32Z</time></trkpt><trkpt lat="51.7358822934" lon="-1.7078928184"><ele>90.02</ele><time>2014-04-02T11:13:46Z</time></trkpt><trkpt lat="51.7359155696" lon="-1.7079003621"><ele>89.54</ele><time>2014-04-02T11:14:11Z</time></trkpt><trkpt lat="51.7359864805" lon="-1.7078676727"><ele>91.46</ele><time>2014-04-02T11:14:22Z</time></trkpt><trkpt lat="51.7361066770" lon="-1.7078167107"><ele>92.42</ele><time>2014-04-02T11:14:33Z</time></trkpt><trkpt lat="51.7363633309" lon="-1.7078736238"><ele>91.94</ele><time>2014-04-02T11:14:51Z</time></trkpt><trkpt lat="51.7364987824" lon="-1.7079079896"><ele>91.94</ele><time>2014-04-02T11:15:07Z</time></trkpt><trkpt lat="51.7367293686" lon="-1.7079414334"><ele>92.90</ele><time>2014-04-02T11:15:23Z</time></trkpt><trkpt lat="51.7367936578" lon="-1.7079768889"><ele>94.35</ele><time>2014-04-02T11:15:37Z</time></trkpt><trkpt lat="51.7369334679" lon="-1.7080500629"><ele>94.35</ele><time>2014-04-02T11:15:54Z</time></trkpt><trkpt lat="51.7370735295" lon="-1.7081434373"><ele>95.31</ele><time>2014-04-02T11:16:09Z</time></trkpt><trkpt lat="51.7372762039" lon="-1.7082860135"><ele>94.83</ele><time>2014-04-02T11:16:26Z</time></trkpt><trkpt lat="51.7374135833" lon="-1.7083682399"><ele>96.27</ele><time>2014-04-02T11:16:40Z</time></trkpt><trkpt lat="51.7374551576" lon="-1.7084511369"><ele>96.27</ele><time>2014-04-02T11:16:52Z</time></trkpt><trkpt lat="51.7375454307" lon="-1.7084809765"><ele>95.79</ele><time>2014-04-02T11:17:07Z</time></trkpt><trkpt lat="51.7375748511" lon="-1.7084991653"><ele>94.83</ele><time>2014-04-02T11:17:11Z</time></trkpt><trkpt lat="51.7376139946" lon="-1.7085244786"><ele>94.83</ele><time>2014-04-02T11:17:15Z</time></trkpt><trkpt lat="51.7377544753" lon="-1.7086313479"><ele>93.87</ele><time>2014-04-02T11:17:28Z</time></trkpt><trkpt lat="51.7378344387" lon="-1.7087201960"><ele>91.46</ele><time>2014-04-02T11:17:46Z</time></trkpt><trkpt lat="51.7378264759" lon="-1.7087401450"><ele>93.39</ele><time>2014-04-02T11:18:05Z</time></trkpt><trkpt lat="51.7378289066" lon="-1.7087462638"><ele>99.15</ele><time>2014-04-02T11:18:20Z</time></trkpt><trkpt lat="51.7378290743" lon="-1.7087470181"><ele>93.39</ele><time>2014-04-02T11:18:21Z</time></trkpt><trkpt lat="51.7378310021" lon="-1.7087511253"><ele>93.39</ele><time>2014-04-02T11:18:48Z</time></trkpt><trkpt lat="51.7378780246" lon="-1.7087756842"><ele>92.42</ele><time>2014-04-02T11:19:07Z</time></trkpt><trkpt lat="51.7379755061" lon="-1.7088151630"><ele>92.90</ele><time>2014-04-02T11:19:12Z</time></trkpt><trkpt lat="51.7381824553" lon="-1.7089501955"><ele>92.42</ele><time>2014-04-02T11:19:29Z</time></trkpt><trkpt lat="51.7384237703" lon="-1.7090609204"><ele>91.46</ele><time>2014-04-02T11:19:50Z</time></trkpt><trkpt lat="51.7386376765" lon="-1.7091621738"><ele>91.46</ele><time>2014-04-02T11:20:07Z</time></trkpt><trkpt lat="51.7388087511" lon="-1.7092490103"><ele>90.50</ele><time>2014-04-02T11:20:24Z</time></trkpt><trkpt lat="51.7390353978" lon="-1.7096110247"><ele>89.54</ele><time>2014-04-02T11:20:43Z</time></trkpt><trkpt lat="51.7391956598" lon="-1.7098678462"><ele>90.02</ele><time>2014-04-02T11:21:04Z</time></trkpt><trkpt lat="51.7394275032" lon="-1.7100348137"><ele>90.50</ele><time>2014-04-02T11:21:24Z</time></trkpt><trkpt lat="51.7396255676" lon="-1.7102557607"><ele>91.46</ele><time>2014-04-02T11:21:45Z</time></trkpt><trkpt lat="51.7396423314" lon="-1.7102937307"><ele>90.98</ele><time>2014-04-02T11:22:02Z</time></trkpt><trkpt lat="51.7397368792" lon="-1.7103265878"><ele>91.94</ele><time>2014-04-02T11:22:17Z</time></trkpt><trkpt lat="51.7400156613" lon="-1.7104686610"><ele>92.42</ele><time>2014-04-02T11:22:37Z</time></trkpt><trkpt lat="51.7402352672" lon="-1.7105365545"><ele>91.94</ele><time>2014-04-02T11:22:51Z</time></trkpt><trkpt lat="51.7403788492" lon="-1.7105019372"><ele>91.46</ele><time>2014-04-02T11:23:07Z</time></trkpt><trkpt lat="51.7406052444" lon="-1.7104444373"><ele>90.50</ele><time>2014-04-02T11:23:25Z</time></trkpt><trkpt lat="51.7407027259" lon="-1.7104187887"><ele>91.94</ele><time>2014-04-02T11:23:31Z</time></trkpt><trkpt lat="51.7407553643" lon="-1.7104010191"><ele>91.94</ele><time>2014-04-02T11:23:36Z</time></trkpt><trkpt lat="51.7409011256" lon="-1.7102242447"><ele>91.46</ele><time>2014-04-02T11:23:52Z</time></trkpt><trkpt lat="51.7410568614" lon="-1.7100368254"><ele>91.94</ele><time>2014-04-02T11:24:10Z</time></trkpt><trkpt lat="51.7410848569" lon="-1.7099934909"><ele>93.39</ele><time>2014-04-02T11:24:13Z</time></trkpt><trkpt lat="51.7412395868" lon="-1.7098027188"><ele>93.39</ele><time>2014-04-02T11:24:34Z</time></trkpt><trkpt lat="51.7413795646" lon="-1.7095826939"><ele>92.90</ele><time>2014-04-02T11:24:53Z</time></trkpt><trkpt lat="51.7415694986" lon="-1.7094027344"><ele>92.42</ele><time>2014-04-02T11:25:13Z</time></trkpt><trkpt lat="51.7416627053" lon="-1.7092838790"><ele>91.94</ele><time>2014-04-02T11:25:22Z</time></trkpt><trkpt lat="51.7418590095" lon="-1.7090283148"><ele>91.94</ele><time>2014-04-02T11:25:42Z</time></trkpt><trkpt lat="51.7420351971" lon="-1.7087838985"><ele>91.94</ele><time>2014-04-02T11:26:03Z</time></trkpt><trkpt lat="51.7422244605" lon="-1.7085943837"><ele>91.94</ele><time>2014-04-02T11:26:20Z</time></trkpt><trkpt lat="51.7423769273" lon="-1.7084184475"><ele>91.46</ele><time>2014-04-02T11:26:34Z</time></trkpt><trkpt lat="51.7423988879" lon="-1.7084007617"><ele>92.42</ele><time>2014-04-02T11:26:35Z</time></trkpt><trkpt lat="51.7424993031" lon="-1.7083006818"><ele>92.42</ele><time>2014-04-02T11:26:51Z</time></trkpt><trkpt lat="51.7426490877" lon="-1.7082177848"><ele>91.94</ele><time>2014-04-02T11:27:09Z</time></trkpt><trkpt lat="51.7428339086" lon="-1.7081483826"><ele>91.46</ele><time>2014-04-02T11:27:26Z</time></trkpt><trkpt lat="51.7429702822" lon="-1.7081839219"><ele>91.94</ele><time>2014-04-02T11:27:33Z</time></trkpt><trkpt lat="51.7430147901" lon="-1.7081905436"><ele>92.42</ele><time>2014-04-02T11:27:35Z</time></trkpt><trkpt lat="51.7433686741" lon="-1.7083332874"><ele>91.46</ele><time>2014-04-02T11:27:56Z</time></trkpt><trkpt lat="51.7435026169" lon="-1.7083555833"><ele>91.46</ele><time>2014-04-02T11:28:16Z</time></trkpt><trkpt lat="51.7435028683" lon="-1.7083497997"><ele>91.46</ele><time>2014-04-02T11:28:21Z</time></trkpt><trkpt lat="51.7436914612" lon="-1.7081992608"><ele>92.90</ele><time>2014-04-02T11:28:42Z</time></trkpt><trkpt lat="51.7439269088" lon="-1.7081767973"><ele>92.42</ele><time>2014-04-02T11:28:54Z</time></trkpt><trkpt lat="51.7440253962" lon="-1.7081603687"><ele>93.87</ele><time>2014-04-02T11:29:00Z</time></trkpt><trkpt lat="51.7441823054" lon="-1.7081785575"><ele>93.87</ele><time>2014-04-02T11:29:10Z</time></trkpt><trkpt lat="51.7442827206" lon="-1.7081394140"><ele>93.87</ele><time>2014-04-02T11:29:18Z</time></trkpt><trkpt lat="51.7443660367" lon="-1.7081151064"><ele>92.90</ele><time>2014-04-02T11:29:24Z</time></trkpt><trkpt lat="51.7445515282" lon="-1.7080495600"><ele>93.87</ele><time>2014-04-02T11:29:38Z</time></trkpt><trkpt lat="51.7447516043" lon="-1.7080016993"><ele>93.87</ele><time>2014-04-02T11:29:54Z</time></trkpt><trkpt lat="51.7449423764" lon="-1.7080031242"><ele>93.87</ele><time>2014-04-02T11:30:12Z</time></trkpt><trkpt lat="51.7450639140" lon="-1.7080186307"><ele>93.87</ele><time>2014-04-02T11:30:32Z</time></trkpt><trkpt lat="51.7451337352" lon="-1.7081037909"><ele>93.39</ele><time>2014-04-02T11:30:52Z</time></trkpt><trkpt lat="51.7451607250" lon="-1.7082808167"><ele>91.94</ele><time>2014-04-02T11:31:08Z</time></trkpt><trkpt lat="51.7452132795" lon="-1.7085937131"><ele>90.98</ele><time>2014-04-02T11:31:28Z</time></trkpt><trkpt lat="51.7453032173" lon="-1.7088074517"><ele>90.50</ele><time>2014-04-02T11:31:45Z</time></trkpt><trkpt lat="51.7453960050" lon="-1.7089639418"><ele>90.98</ele><time>2014-04-02T11:31:58Z</time></trkpt><trkpt lat="51.7454157025" lon="-1.7090206873"><ele>90.98</ele><time>2014-04-02T11:32:01Z</time></trkpt><trkpt lat="51.7454439495" lon="-1.7090844736"><ele>90.50</ele><time>2014-04-02T11:32:17Z</time></trkpt><trkpt lat="51.7454409320" lon="-1.7091459967"><ele>90.50</ele><time>2014-04-02T11:32:39Z</time></trkpt><trkpt lat="51.7454480566" lon="-1.7091597430"><ele>90.02</ele><time>2014-04-02T11:33:05Z</time></trkpt><trkpt lat="51.7454399262" lon="-1.7092567217"><ele>90.50</ele><time>2014-04-02T11:33:21Z</time></trkpt><trkpt lat="51.7454086617" lon="-1.7093909159"><ele>90.50</ele><time>2014-04-02T11:33:35Z</time></trkpt><trkpt lat="51.7453791574" lon="-1.7095239367"><ele>90.98</ele><time>2014-04-02T11:33:51Z</time></trkpt><trkpt lat="51.7453523353" lon="-1.7096116114"><ele>90.98</ele><time>2014-04-02T11:33:57Z</time></trkpt><trkpt lat="51.7453201488" lon="-1.7097570375"><ele>88.10</ele><time>2014-04-02T11:34:08Z</time></trkpt><trkpt lat="51.7453031335" lon="-1.7098193150"><ele>91.46</ele><time>2014-04-02T11:34:12Z</time></trkpt><trkpt lat="51.7452877946" lon="-1.7099093366"><ele>89.06</ele><time>2014-04-02T11:34:19Z</time></trkpt><trkpt lat="51.7452765629" lon="-1.7099594604"><ele>92.90</ele><time>2014-04-02T11:34:22Z</time></trkpt><trkpt lat="51.7452732101" lon="-1.7099926528"><ele>87.62</ele><time>2014-04-02T11:34:24Z</time></trkpt><trkpt lat="51.7452717852" lon="-1.7100065667"><ele>90.98</ele><time>2014-04-02T11:34:25Z</time></trkpt><trkpt lat="51.7452758085" lon="-1.7100508232"><ele>87.62</ele><time>2014-04-02T11:34:29Z</time></trkpt><trkpt lat="51.7452774849" lon="-1.7100566905"><ele>92.90</ele><time>2014-04-02T11:34:30Z</time></trkpt><trkpt lat="51.7452953383" lon="-1.7100498173"><ele>89.54</ele><time>2014-04-02T11:34:46Z</time></trkpt><trkpt lat="51.7452918179" lon="-1.7100600433"><ele>96.75</ele><time>2014-04-02T11:34:57Z</time></trkpt><trkpt lat="51.7452917341" lon="-1.7100602947"><ele>86.66</ele><time>2014-04-02T11:34:58Z</time></trkpt><trkpt lat="51.7452923208" lon="-1.7100615520"><ele>91.94</ele><time>2014-04-02T11:34:59Z</time></trkpt><trkpt lat="51.7452955060" lon="-1.7100674193"><ele>85.21</ele><time>2014-04-02T11:35:01Z</time></trkpt><trkpt lat="51.7452980205" lon="-1.7100716941"><ele>89.54</ele><time>2014-04-02T11:35:02Z</time></trkpt><trkpt lat="51.7453095876" lon="-1.7100903019"><ele>95.31</ele><time>2014-04-02T11:35:05Z</time></trkpt><trkpt lat="51.7453169636" lon="-1.7101024557"><ele>89.06</ele><time>2014-04-02T11:35:06Z</time></trkpt><trkpt lat="51.7453203164" lon="-1.7101095803"><ele>92.42</ele><time>2014-04-02T11:35:08Z</time></trkpt><trkpt lat="51.7453206517" lon="-1.7101110052"><ele>90.50</ele><time>2014-04-02T11:35:09Z</time></trkpt><trkpt lat="51.7453543469" lon="-1.7101883702"><ele>89.54</ele><time>2014-04-02T11:35:35Z</time></trkpt><trkpt lat="51.7453781515" lon="-1.7102796491"><ele>90.02</ele><time>2014-04-02T11:35:40Z</time></trkpt><trkpt lat="51.7453634832" lon="-1.7104631290"><ele>90.98</ele><time>2014-04-02T11:35:53Z</time></trkpt><trkpt lat="51.7453222442" lon="-1.7105839960"><ele>90.50</ele><time>2014-04-02T11:36:06Z</time></trkpt><trkpt lat="51.7453084979" lon="-1.7105757818"><ele>92.90</ele><time>2014-04-02T11:36:24Z</time></trkpt><trkpt lat="51.7453157902" lon="-1.7106205411"><ele>91.46</ele><time>2014-04-02T11:36:27Z</time></trkpt><trkpt lat="51.7453013733" lon="-1.7107243091"><ele>91.46</ele><time>2014-04-02T11:36:32Z</time></trkpt><trkpt lat="51.7452506628" lon="-1.7108043563"><ele>94.35</ele><time>2014-04-02T11:36:37Z</time></trkpt><trkpt lat="51.7452382576" lon="-1.7108264845"><ele>91.46</ele><time>2014-04-02T11:36:39Z</time></trkpt><trkpt lat="51.7452195659" lon="-1.7108447570"><ele>93.87</ele><time>2014-04-02T11:36:41Z</time></trkpt><trkpt lat="51.7451379262" lon="-1.7109596729"><ele>94.83</ele><time>2014-04-02T11:36:51Z</time></trkpt><trkpt lat="51.7450694460" lon="-1.7110908497"><ele>95.79</ele><time>2014-04-02T11:36:57Z</time></trkpt><trkpt lat="51.7450671829" lon="-1.7111554742"><ele>95.79</ele><time>2014-04-02T11:37:00Z</time></trkpt><trkpt lat="51.7450576276" lon="-1.7113852222"><ele>97.23</ele><time>2014-04-02T11:37:19Z</time></trkpt><trkpt lat="51.7450577114" lon="-1.7113987170"><ele>97.71</ele><time>2014-04-02T11:37:20Z</time></trkpt><trkpt lat="51.7450979445" lon="-1.7115179915"><ele>99.15</ele><time>2014-04-02T11:37:33Z</time></trkpt><trkpt lat="51.7451161332" lon="-1.7117683589"><ele>100.60</ele><time>2014-04-02T11:37:48Z</time></trkpt><trkpt lat="51.7450909875" lon="-1.7120323889"><ele>102.52</ele><time>2014-04-02T11:38:03Z</time></trkpt><trkpt lat="51.7451537680" lon="-1.7121179681"><ele>103.00</ele><time>2014-04-02T11:38:19Z</time></trkpt><trkpt lat="51.7451773211" lon="-1.7120979354"><ele>103.48</ele><time>2014-04-02T11:38:39Z</time></trkpt><trkpt lat="51.7452102620" lon="-1.7123866081"><ele>103.00</ele><time>2014-04-02T11:38:54Z</time></trkpt><trkpt lat="51.7452152912" lon="-1.7124849278"><ele>103.48</ele><time>2014-04-02T11:39:01Z</time></trkpt><trkpt lat="51.7452072445" lon="-1.7127729300"><ele>103.48</ele><time>2014-04-02T11:39:17Z</time></trkpt><trkpt lat="51.7452424485" lon="-1.7129314318"><ele>103.48</ele><time>2014-04-02T11:39:27Z</time></trkpt><trkpt lat="51.7452566139" lon="-1.7130237166"><ele>103.00</ele><time>2014-04-02T11:39:32Z</time></trkpt><trkpt lat="51.7453385051" lon="-1.7131725792"><ele>104.44</ele><time>2014-04-02T11:39:43Z</time></trkpt><trkpt lat="51.7453889642" lon="-1.7133516166"><ele>104.44</ele><time>2014-04-02T11:39:56Z</time></trkpt><trkpt lat="51.7454556003" lon="-1.7135512736"><ele>105.88</ele><time>2014-04-02T11:40:11Z</time></trkpt><trkpt lat="51.7455394194" lon="-1.7137112841"><ele>106.36</ele><time>2014-04-02T11:40:28Z</time></trkpt><trkpt lat="51.7456270102" lon="-1.7140154634"><ele>107.81</ele><time>2014-04-02T11:40:47Z</time></trkpt><trkpt lat="51.7456367332" lon="-1.7140828539"><ele>108.77</ele><time>2014-04-02T11:40:52Z</time></trkpt><trkpt lat="51.7457069736" lon="-1.7140209116"><ele>108.77</ele><time>2014-04-02T11:40:57Z</time></trkpt><trkpt lat="51.7457381543" lon="-1.7139178142"><ele>109.73</ele><time>2014-04-02T11:41:09Z</time></trkpt><trkpt lat="51.7457395792" lon="-1.7139158025"><ele>110.21</ele><time>2014-04-02T11:41:21Z</time></trkpt></trkseg></trk></gpx>